createdAt,value
2022-12-19T00:01:37.106Z,1.00
2022-12-19T00:04:08.150Z,1.10
2022-12-19T00:06:37.575Z,1.50
2022-12-19T00:09:05.607Z,1.30
2022-12-19T00:11:33.737Z,1.30
2022-12-19T00:14:00.796Z,1.30
2022-12-19T00:16:30.330Z,1.50
2022-12-19T00:18:59.908Z,1.60
2022-12-19T00:21:34.676Z,1.30
2022-12-19T00:24:04.803Z,1.30
2022-12-19T00:26:48.449Z,1.30
2022-12-19T00:29:15.617Z,1.30
2022-12-19T00:31:43.302Z,1.30
2022-12-19T00:34:10.270Z,1.30
2022-12-19T00:36:36.997Z,1.40
2022-12-19T00:39:08.084Z,1.20
2022-12-19T00:41:41.875Z,1.70
2022-12-19T00:44:16.409Z,1.40
2022-12-19T00:46:44.503Z,1.30
2022-12-19T00:49:18.286Z,1.30
2022-12-19T00:51:45.063Z,1.30
2022-12-19T00:54:11.979Z,1.40
2022-12-19T00:56:39.451Z,1.40
2022-12-19T00:59:06.326Z,1.30
2022-12-19T01:01:36.159Z,1.50
2022-12-19T01:04:27.847Z,1.50
2022-12-19T01:06:51.458Z,1.60
2022-12-19T01:09:19.042Z,1.50
2022-12-19T01:12:04.383Z,1.50
2022-12-19T01:14:31.123Z,1.60
2022-12-19T01:16:57.920Z,1.50
2022-12-19T01:19:28.066Z,1.50
2022-12-19T01:21:54.887Z,1.50
2022-12-19T01:24:21.734Z,1.60
2022-12-19T01:26:48.484Z,1.50
2022-12-19T01:29:15.238Z,1.60
2022-12-19T01:31:42.029Z,1.50
2022-12-19T01:34:11.082Z,1.80
2022-12-19T01:36:40.016Z,1.80
2022-12-19T01:39:07.696Z,1.80
2022-12-19T01:41:35.265Z,1.90
2022-12-19T01:44:06.128Z,1.80
2022-12-19T01:46:34.554Z,1.80
2022-12-19T01:49:02.542Z,1.90
2022-12-19T01:51:39.995Z,1.80
2022-12-19T01:54:11.770Z,1.70
2022-12-19T01:56:45.913Z,1.80
2022-12-19T01:59:19.590Z,2.00
2022-12-19T02:01:51.686Z,1.70
2022-12-19T02:04:20.231Z,1.70
2022-12-19T02:06:47.522Z,1.70
2022-12-19T02:09:15.435Z,1.80
2022-12-19T02:11:42.281Z,1.90
2022-12-19T02:14:09.330Z,1.60
2022-12-19T02:17:11.617Z,2.10
2022-12-19T02:20:37.359Z,1.70
2022-12-19T02:23:33.599Z,1.70
2022-12-19T02:26:46.381Z,1.80
2022-12-19T02:29:55.321Z,1.90
2022-12-19T02:32:41.423Z,1.60
2022-12-19T02:35:24.454Z,1.90
2022-12-19T02:38:13.252Z,1.70
2022-12-19T02:40:50.936Z,1.90
2022-12-19T02:43:23.888Z,1.80
2022-12-19T02:45:52.105Z,1.90
2022-12-19T02:48:20.292Z,2.00
2022-12-19T02:50:50.312Z,1.90
2022-12-19T02:53:18.220Z,2.00
2022-12-19T02:56:22.357Z,2.00
2022-12-19T02:59:05.770Z,1.90
2022-12-19T03:01:53.383Z,2.20
2022-12-19T03:04:37.029Z,2.00
2022-12-19T03:07:42.599Z,2.00
2022-12-19T03:10:39.134Z,2.00
2022-12-19T03:13:14.675Z,1.90
2022-12-19T03:15:42.940Z,2.00
2022-12-19T03:18:10.752Z,1.90
2022-12-19T03:21:09.344Z,1.90
2022-12-19T03:23:37.243Z,2.40
2022-12-19T03:26:12.620Z,2.00
2022-12-19T03:28:51.322Z,2.20
2022-12-19T03:31:21.676Z,2.20
2022-12-19T03:33:54.629Z,2.20
2022-12-19T03:36:26.215Z,2.20
2022-12-19T03:38:53.737Z,2.20
2022-12-19T03:41:42.887Z,2.30
2022-12-19T03:44:12.005Z,2.20
2022-12-19T03:46:44.452Z,2.20
2022-12-19T03:49:11.399Z,2.50
2022-12-19T03:52:04.046Z,2.40
2022-12-19T03:54:36.459Z,2.20
2022-12-19T03:57:26.537Z,2.30
2022-12-19T04:00:04.752Z,2.40
2022-12-19T04:02:38.565Z,2.20
2022-12-19T04:05:10.479Z,2.30
2022-12-19T04:07:39.037Z,2.40
2022-12-19T04:10:08.966Z,2.20
2022-12-19T04:12:43.065Z,2.60
2022-12-19T04:15:13.358Z,2.50
2022-12-19T04:17:59.940Z,2.40
2022-12-19T04:20:28.409Z,2.20
2022-12-19T04:23:23.851Z,2.30
2022-12-19T04:25:54.653Z,2.40
2022-12-19T04:28:21.308Z,2.20
2022-12-19T04:30:49.735Z,2.20
2022-12-19T04:33:19.412Z,2.20
2022-12-19T04:35:46.432Z,2.20
2022-12-19T04:38:13.881Z,2.50
2022-12-19T04:40:41.670Z,2.50
2022-12-19T04:43:09.378Z,2.50
2022-12-19T04:45:36.230Z,2.50
2022-12-19T04:48:03.826Z,2.40
2022-12-19T04:50:33.138Z,2.50
2022-12-19T04:53:00.615Z,2.80
2022-12-19T04:55:27.719Z,2.40
2022-12-19T04:57:54.587Z,2.20
2022-12-19T05:00:21.771Z,2.40
2022-12-19T05:02:49.060Z,2.50
2022-12-19T05:05:16.648Z,2.70
2022-12-19T05:07:43.454Z,2.30
2022-12-19T05:10:10.306Z,2.70
2022-12-19T05:12:37.200Z,2.50
2022-12-19T05:15:06.098Z,2.60
2022-12-19T05:17:32.811Z,2.60
2022-12-19T05:19:59.584Z,2.40
2022-12-19T05:22:26.382Z,2.20
2022-12-19T05:24:53.564Z,2.50
2022-12-19T05:27:20.269Z,2.20
2022-12-19T05:29:47.148Z,2.10
2022-12-19T05:32:13.898Z,2.10
2022-12-19T05:34:40.791Z,2.10
2022-12-19T05:37:07.747Z,2.30
2022-12-19T05:39:35.012Z,2.10
2022-12-19T05:42:01.785Z,2.30
2022-12-19T05:44:28.515Z,2.20
2022-12-19T05:46:58.410Z,2.20
2022-12-19T05:49:25.251Z,2.30
2022-12-19T05:51:52.790Z,2.40
2022-12-19T05:54:19.854Z,2.30
2022-12-19T05:56:47.090Z,2.10
2022-12-19T05:59:13.834Z,2.20
2022-12-19T06:01:41.030Z,2.30
2022-12-19T06:04:07.881Z,2.50
2022-12-19T06:06:35.170Z,2.50
2022-12-19T06:09:02.738Z,2.20
2022-12-19T06:11:29.944Z,2.50
2022-12-19T06:13:59.282Z,2.60
2022-12-19T06:16:26.453Z,2.70
2022-12-19T06:18:53.714Z,2.50
2022-12-19T06:21:22.425Z,2.50
2022-12-19T06:23:50.021Z,2.40
2022-12-19T06:26:22.718Z,2.40
2022-12-19T06:28:51.930Z,2.40
2022-12-19T06:31:20.668Z,2.40
2022-12-19T06:33:49.890Z,2.40
2022-12-19T06:36:22.480Z,2.30
2022-12-19T06:38:50.921Z,2.50
2022-12-19T06:41:37.557Z,2.50
2022-12-19T06:44:06.874Z,2.40
2022-12-19T06:46:34.566Z,2.40
2022-12-19T06:49:01.455Z,2.30
2022-12-19T06:51:28.346Z,2.70
2022-12-19T06:53:55.830Z,2.60
2022-12-19T06:56:22.636Z,2.50
2022-12-19T06:58:50.062Z,2.70
2022-12-19T07:01:18.513Z,2.40
2022-12-19T07:03:47.344Z,2.50
2022-12-19T07:06:14.519Z,2.40
2022-12-19T07:08:41.349Z,2.40
2022-12-19T07:11:08.198Z,2.50
2022-12-19T07:13:35.002Z,2.70
2022-12-19T07:16:04.165Z,2.50
2022-12-19T07:18:35.965Z,2.40
2022-12-19T07:21:04.411Z,2.50
2022-12-19T07:23:32.013Z,2.50
2022-12-19T07:25:58.842Z,2.50
2022-12-19T07:28:25.908Z,2.70
2022-12-19T07:30:52.753Z,2.50
2022-12-19T07:33:21.670Z,2.50
2022-12-19T07:35:49.387Z,2.50
2022-12-19T07:38:16.452Z,2.90
2022-12-19T07:40:43.526Z,3.00
2022-12-19T07:43:10.547Z,3.60
2022-12-19T07:45:38.941Z,3.90
2022-12-19T07:48:07.003Z,4.40
2022-12-19T07:50:34.135Z,5.10
2022-12-19T07:53:01.088Z,5.30
2022-12-19T07:55:28.700Z,5.30
2022-12-19T07:57:55.678Z,5.50
2022-12-19T08:00:25.175Z,5.60
2022-12-19T08:02:52.513Z,5.70
2022-12-19T08:05:24.696Z,5.60
2022-12-19T08:07:55.284Z,5.80
2022-12-19T08:10:23.259Z,5.90
2022-12-19T08:12:50.492Z,5.70
2022-12-19T08:15:19.143Z,5.40
2022-12-19T08:17:46.180Z,5.90
2022-12-19T08:20:13.581Z,5.70
2022-12-19T08:22:41.145Z,5.60
2022-12-19T08:25:08.563Z,5.20
2022-12-19T08:27:36.023Z,4.90
2022-12-19T08:30:05.119Z,4.50
2022-12-19T08:32:32.259Z,4.70
2022-12-19T08:34:59.324Z,4.30
2022-12-19T08:37:26.188Z,4.50
2022-12-19T08:39:53.213Z,4.30
2022-12-19T08:42:20.385Z,4.10
2022-12-19T08:44:47.436Z,4.20
2022-12-19T08:47:15.319Z,4.10
2022-12-19T08:49:45.301Z,4.10
2022-12-19T08:52:12.145Z,4.00
2022-12-19T08:54:40.461Z,3.90
2022-12-19T08:57:07.564Z,3.90
2022-12-19T08:59:34.478Z,3.70
2022-12-19T09:02:02.364Z,3.80
2022-12-19T09:05:13.817Z,3.60
2022-12-19T09:07:17.984Z,3.50
2022-12-19T09:09:45.312Z,3.60
2022-12-19T09:12:16.469Z,3.60
2022-12-19T09:14:44.420Z,3.90
2022-12-19T09:17:11.523Z,3.90
2022-12-19T09:19:38.405Z,4.10
2022-12-19T09:22:06.718Z,4.00
2022-12-19T09:24:33.692Z,3.90
2022-12-19T09:27:00.601Z,3.80
2022-12-19T09:29:33.522Z,3.90
2022-12-19T09:32:02.045Z,4.20
2022-12-19T09:34:38.486Z,4.00
2022-12-19T09:37:16.238Z,4.00
2022-12-19T09:39:47.820Z,4.00
2022-12-19T09:42:43.473Z,4.00
2022-12-19T09:45:31.252Z,4.00
2022-12-19T09:48:00.248Z,3.90
2022-12-19T09:51:10.437Z,3.70
2022-12-19T09:54:08.695Z,4.00
2022-12-19T09:56:46.445Z,3.90
2022-12-19T09:59:45.975Z,4.30
2022-12-19T10:02:56.166Z,4.30
2022-12-19T10:07:00.745Z,4.50
2022-12-19T10:08:45.384Z,4.80
2022-12-19T10:12:47.763Z,4.80
2022-12-19T10:15:02.855Z,4.80
2022-12-19T10:17:52.041Z,4.90
2022-12-19T10:20:30.860Z,5.30
2022-12-19T10:23:29.315Z,5.20
2022-12-19T10:26:19.384Z,5.30
2022-12-19T10:29:12.045Z,5.50
2022-12-19T10:31:59.443Z,5.40
2022-12-19T10:34:40.735Z,5.80
2022-12-19T10:37:40.966Z,5.70
2022-12-19T10:40:35.068Z,5.60
2022-12-19T10:43:40.816Z,5.90
2022-12-19T10:46:37.419Z,5.70
2022-12-19T10:49:21.109Z,5.90
2022-12-19T10:51:56.951Z,5.70
2022-12-19T10:54:33.380Z,6.20
2022-12-19T10:57:28.456Z,6.10
2022-12-19T11:00:06.405Z,6.20
2022-12-19T11:02:38.787Z,6.20
2022-12-19T11:05:24.391Z,6.10
2022-12-19T11:08:06.474Z,6.30
2022-12-19T11:12:25.346Z,6.60
2022-12-19T11:17:17.291Z,6.40
2022-12-19T11:24:23.544Z,6.70
2022-12-19T11:29:35.108Z,6.50
2022-12-19T11:29:39.219Z,6.90
2022-12-19T11:30:46.432Z,7.00
2022-12-19T11:30:48.671Z,6.90
2022-12-19T11:34:13.462Z,6.80
2022-12-19T11:36:49.964Z,7.10
2022-12-19T11:39:40.894Z,7.10
2022-12-19T11:42:25.546Z,7.10
2022-12-19T11:45:03.364Z,7.10
2022-12-19T11:47:47.305Z,7.10
2022-12-19T11:50:27.088Z,7.10
2022-12-19T11:53:18.386Z,7.10
2022-12-19T11:56:02.170Z,7.10
2022-12-19T11:58:30.244Z,7.10
2022-12-19T12:01:40.083Z,7.50
2022-12-19T12:04:22.562Z,7.60
2022-12-19T12:06:52.819Z,7.60
2022-12-19T12:11:00.419Z,8.00
2022-12-19T12:18:29.518Z,7.90
2022-12-19T12:26:33.114Z,8.20
2022-12-19T12:31:13.257Z,8.40
2022-12-19T12:31:31.016Z,8.40
2022-12-19T12:31:44.724Z,8.70
2022-12-19T12:31:51.876Z,8.70
2022-12-19T12:35:42.529Z,8.70
2022-12-19T12:41:01.455Z,8.30
2022-12-19T12:43:52.988Z,8.30
2022-12-19T12:46:26.407Z,7.80
2022-12-19T12:48:59.972Z,7.80
2022-12-19T12:51:27.795Z,7.80
2022-12-19T12:54:07.543Z,8.20
2022-12-19T12:56:36.701Z,8.30
2022-12-19T12:59:08.159Z,8.30
2022-12-19T13:01:39.410Z,8.10
2022-12-19T13:04:12.515Z,8.20
2022-12-19T13:06:40.964Z,8.70
2022-12-19T13:09:21.819Z,8.40
2022-12-19T13:12:13.547Z,8.70
2022-12-19T13:14:44.071Z,8.80
2022-12-19T13:17:20.666Z,8.50
2022-12-19T13:20:17.710Z,8.70
2022-12-19T13:23:07.984Z,8.80
2022-12-19T13:25:34.931Z,8.70
2022-12-19T13:28:01.998Z,8.50
2022-12-19T13:30:50.156Z,8.70
2022-12-19T13:33:20.871Z,8.70
2022-12-19T13:39:46.424Z,8.30
2022-12-19T13:39:54.507Z,8.20
2022-12-19T13:42:01.294Z,8.30
2022-12-19T13:44:29.016Z,8.50
2022-12-19T13:46:56.712Z,8.40
2022-12-19T13:49:33.280Z,8.20
2022-12-19T13:52:03.581Z,8.10
2022-12-19T13:54:37.071Z,8.10
2022-12-19T13:57:30.354Z,8.00
2022-12-19T14:00:06.858Z,8.50
2022-12-19T14:02:45.221Z,8.50
2022-12-19T14:06:17.615Z,9.00
2022-12-19T14:08:24.505Z,9.10
2022-12-19T14:11:42.837Z,9.50
2022-12-19T14:14:15.127Z,9.70
2022-12-19T14:16:46.007Z,9.90
2022-12-19T14:19:25.958Z,10.50
2022-12-19T14:22:03.707Z,10.40
2022-12-19T14:24:35.447Z,10.60
2022-12-19T14:28:21.196Z,11.30
2022-12-19T14:30:28.572Z,12.00
2022-12-19T14:33:43.681Z,12.20
2022-12-19T14:36:10.368Z,12.20
2022-12-19T14:39:22.534Z,11.90
2022-12-19T14:42:00.389Z,11.20
2022-12-19T14:53:10.890Z,11.00
2022-12-19T14:54:14.803Z,9.50
2022-12-19T14:54:22.567Z,10.10
2022-12-19T14:54:48.109Z,9.00
2022-12-19T14:56:30.825Z,8.50
2022-12-19T14:59:00.783Z,7.90
2022-12-19T15:01:30.969Z,7.50
2022-12-19T15:04:51.025Z,7.40
2022-12-19T15:07:09.127Z,7.20
2022-12-19T15:11:07.821Z,7.40
2022-12-19T15:14:54.529Z,7.70
2022-12-19T15:16:07.521Z,7.50
2022-12-19T15:18:42.532Z,7.40
2022-12-19T15:21:14.553Z,7.50
2022-12-19T15:23:44.331Z,7.80
2022-12-19T15:26:17.900Z,7.40
2022-12-19T15:28:52.913Z,7.50
2022-12-19T15:31:43.448Z,7.10
2022-12-19T15:34:35.049Z,7.10
2022-12-19T15:37:14.230Z,6.20
2022-12-19T15:39:41.991Z,6.00
2022-12-19T15:42:25.079Z,5.70
2022-12-19T15:44:53.644Z,5.30
2022-12-19T15:47:36.090Z,4.90
2022-12-19T15:50:22.012Z,4.80
2022-12-19T15:52:49.216Z,4.50
2022-12-19T15:55:18.471Z,4.30
2022-12-19T15:57:51.975Z,4.10
2022-12-19T16:00:24.215Z,4.10
2022-12-19T16:05:40.402Z,4.00
2022-12-19T16:08:15.634Z,3.90
2022-12-19T16:10:44.834Z,3.70
2022-12-19T16:13:21.301Z,3.70
2022-12-19T16:15:48.870Z,3.60
2022-12-19T16:18:16.643Z,3.50
2022-12-19T16:20:43.991Z,3.40
2022-12-19T16:23:11.506Z,3.50
2022-12-19T16:25:48.291Z,3.30
2022-12-19T16:28:19.718Z,3.20
2022-12-19T16:30:47.286Z,3.30
2022-12-19T16:33:27.897Z,3.30
2022-12-19T16:36:05.291Z,3.40
2022-12-19T16:38:33.562Z,3.50
2022-12-19T16:41:01.707Z,3.40
2022-12-19T16:43:32.190Z,3.50
2022-12-19T16:46:01.404Z,3.60
2022-12-19T16:48:30.335Z,3.60
2022-12-19T16:50:59.137Z,3.50
2022-12-19T16:53:26.417Z,3.40
2022-12-19T16:55:56.236Z,3.50
2022-12-19T16:58:26.244Z,3.30
2022-12-19T17:00:55.467Z,3.50
2022-12-19T17:03:51.073Z,3.60
2022-12-19T17:06:19.934Z,3.50
2022-12-19T17:08:47.753Z,3.50
2022-12-19T17:11:25.547Z,3.40
2022-12-19T17:14:16.497Z,3.50
2022-12-19T17:16:43.717Z,3.20
2022-12-19T17:19:19.605Z,3.60
2022-12-19T17:21:46.949Z,3.50
2022-12-19T17:24:15.708Z,3.40
2022-12-19T17:26:44.397Z,3.50
2022-12-19T17:29:12.045Z,3.20
2022-12-19T17:31:40.594Z,3.50
2022-12-19T17:34:26.968Z,3.40
2022-12-19T17:36:54.541Z,3.50
2022-12-19T17:39:24.781Z,3.20
2022-12-19T17:41:53.221Z,3.40
2022-12-19T17:44:20.465Z,3.60
2022-12-19T17:46:47.974Z,3.50
2022-12-19T17:49:26.732Z,3.30
2022-12-19T17:51:53.924Z,3.40
2022-12-19T17:54:22.068Z,3.40
2022-12-19T17:56:50.164Z,3.30
2022-12-19T17:59:17.237Z,3.30
2022-12-19T18:01:47.471Z,3.30
2022-12-19T18:04:18.708Z,3.60
2022-12-19T18:06:48.200Z,3.50
2022-12-19T18:09:25.362Z,3.40
2022-12-19T18:11:52.941Z,3.60
2022-12-19T18:14:20.135Z,3.50
2022-12-19T18:16:50.153Z,3.40
2022-12-19T18:19:19.706Z,3.60
2022-12-19T18:21:47.771Z,3.40
2022-12-19T18:24:17.713Z,3.60
2022-12-19T18:26:45.178Z,3.50
2022-12-19T18:29:13.081Z,3.50
2022-12-19T18:31:46.562Z,3.30
2022-12-19T18:34:26.304Z,3.50
2022-12-19T18:36:53.478Z,3.40
2022-12-19T18:39:23.234Z,3.80
2022-12-19T18:41:51.689Z,3.80
2022-12-19T18:44:19.489Z,3.90
2022-12-19T18:46:49.867Z,3.60
2022-12-19T18:49:17.486Z,3.70
2022-12-19T18:51:45.249Z,3.80
2022-12-19T18:54:21.065Z,3.90
2022-12-19T18:56:48.613Z,3.80
2022-12-19T18:59:16.423Z,3.80
2022-12-19T19:01:46.953Z,3.60
2022-12-19T19:04:17.785Z,3.70
2022-12-19T19:06:51.465Z,3.80
2022-12-19T19:09:20.336Z,3.60
2022-12-19T19:11:47.683Z,3.70
2022-12-19T19:14:14.657Z,3.90
2022-12-19T19:16:41.852Z,3.70
2022-12-19T19:19:14.147Z,3.80
2022-12-19T19:21:41.879Z,3.80
2022-12-19T19:24:21.142Z,3.70
2022-12-19T19:26:48.569Z,3.70
2022-12-19T19:29:15.732Z,3.70
2022-12-19T19:31:46.041Z,3.70
2022-12-19T19:34:19.943Z,3.80
2022-12-19T19:36:52.159Z,3.80
2022-12-19T19:39:20.183Z,3.90
2022-12-19T19:41:47.045Z,3.70
2022-12-19T19:44:13.852Z,3.80
2022-12-19T19:46:41.098Z,3.80
2022-12-19T19:49:07.921Z,3.80
2022-12-19T19:51:34.875Z,3.50
2022-12-19T19:54:01.692Z,3.60
2022-12-19T19:56:28.635Z,3.60
2022-12-19T19:58:59.599Z,3.70
2022-12-19T20:01:26.852Z,3.90
2022-12-19T20:03:54.269Z,3.70
2022-12-19T20:06:21.905Z,3.80
2022-12-19T20:08:49.256Z,3.90
2022-12-19T20:11:16.312Z,3.50
2022-12-19T20:13:43.335Z,3.70
2022-12-19T20:16:16.020Z,3.80
2022-12-19T20:18:48.130Z,3.80
2022-12-19T20:21:15.688Z,3.80
2022-12-19T20:23:44.160Z,3.80
2022-12-19T20:26:12.780Z,3.60
2022-12-19T20:28:47.916Z,3.50
2022-12-19T20:31:17.640Z,3.40
2022-12-19T20:33:46.497Z,3.50
2022-12-19T20:36:14.819Z,3.40
2022-12-19T20:38:41.979Z,3.80
2022-12-19T20:41:12.131Z,3.60
2022-12-19T20:43:39.683Z,3.60
2022-12-19T20:46:09.774Z,3.70
2022-12-19T20:48:37.558Z,3.40
2022-12-19T20:51:06.295Z,3.70
2022-12-19T20:53:35.411Z,3.80
2022-12-19T20:56:04.305Z,3.50
2022-12-19T20:58:34.038Z,3.60
2022-12-19T21:01:08.613Z,3.80
2022-12-19T21:03:36.783Z,3.80
2022-12-19T21:06:04.477Z,3.80
2022-12-19T21:08:31.686Z,3.80
2022-12-19T21:11:00.876Z,3.80
2022-12-19T21:13:28.575Z,3.80
2022-12-19T21:16:03.045Z,3.80
2022-12-19T21:18:31.079Z,3.80
2022-12-19T21:20:59.412Z,3.80
2022-12-19T21:23:27.564Z,3.80
2022-12-19T21:26:00.508Z,3.80
2022-12-19T21:28:28.248Z,3.50
2022-12-19T21:31:01.989Z,3.70
2022-12-19T21:33:29.117Z,3.70
2022-12-19T21:35:56.283Z,3.80
2022-12-19T21:38:23.633Z,3.80
2022-12-19T21:40:50.762Z,3.70
2022-12-19T21:43:18.019Z,3.80
2022-12-19T21:45:45.197Z,3.80
2022-12-19T21:48:12.379Z,3.80
2022-12-19T21:50:39.491Z,3.90
2022-12-19T21:53:06.261Z,3.60
2022-12-19T21:55:33.344Z,3.70
2022-12-19T21:58:00.569Z,3.80
2022-12-19T22:00:27.450Z,3.80
2022-12-19T22:03:13.176Z,3.80
2022-12-19T22:05:41.230Z,3.80
2022-12-19T22:08:09.887Z,3.80
2022-12-19T22:10:39.226Z,3.70
2022-12-19T22:13:06.289Z,3.90
2022-12-19T22:15:35.579Z,3.60
2022-12-19T22:18:02.374Z,3.70
2022-12-19T22:20:30.201Z,3.60
2022-12-19T22:22:57.171Z,3.60
2022-12-19T22:25:24.434Z,3.80
2022-12-19T22:27:51.614Z,3.80
2022-12-19T22:30:18.647Z,3.30
2022-12-19T22:32:45.466Z,3.80
2022-12-19T22:35:12.379Z,3.80
2022-12-19T22:37:39.240Z,3.80
2022-12-19T22:40:07.040Z,3.50
2022-12-19T22:42:34.000Z,3.70
2022-12-19T22:45:01.118Z,3.80
2022-12-19T22:47:27.849Z,3.30
2022-12-19T22:49:55.057Z,3.50
2022-12-19T22:52:23.551Z,3.30
2022-12-19T22:54:50.486Z,3.60
2022-12-19T22:57:17.254Z,3.60
2022-12-19T22:59:44.048Z,3.60
2022-12-19T23:02:11.091Z,3.40
2022-12-19T23:04:38.758Z,3.50
2022-12-19T23:07:05.793Z,3.40
2022-12-19T23:09:32.660Z,3.20
2022-12-19T23:11:59.475Z,3.50
2022-12-19T23:14:26.236Z,3.20
2022-12-19T23:16:53.058Z,3.20
2022-12-19T23:19:20.814Z,3.60
2022-12-19T23:21:47.927Z,3.50
2022-12-19T23:24:15.375Z,3.40
2022-12-19T23:26:42.618Z,3.60
2022-12-19T23:29:12.467Z,3.30
2022-12-19T23:31:42.125Z,3.50
2022-12-19T23:34:10.819Z,3.50
2022-12-19T23:39:25.840Z,3.30
2022-12-19T23:41:52.780Z,3.40
2022-12-19T23:44:19.872Z,3.30
2022-12-19T23:46:47.132Z,3.30
2022-12-19T23:49:14.394Z,3.30
2022-12-19T23:54:21.909Z,3.40
2022-12-19T23:56:49.886Z,3.50
2022-12-19T23:59:17.116Z,3.10
